createdAt,value
2018-03-06T00:01:48.995Z,73.30
2018-03-06T00:04:16.618Z,76.12
2018-03-06T00:06:44.231Z,90.70
2018-03-06T00:09:11.838Z,84.55
2018-03-06T00:11:39.448Z,74.03
2018-03-06T00:14:07.057Z,86.22
2018-03-06T00:16:34.679Z,83.35
2018-03-06T00:19:02.300Z,97.10
2018-03-06T00:21:30.682Z,93.57
2018-03-06T00:23:59.010Z,80.72
2018-03-06T00:26:27.435Z,92.70
2018-03-06T00:28:55.014Z,85.43
2018-03-06T00:31:23.337Z,84.03
2018-03-06T00:33:51.734Z,82.05
2018-03-06T00:36:19.341Z,91.15
2018-03-06T00:38:46.970Z,77.28
2018-03-06T00:41:15.399Z,84.05
2018-03-06T00:43:43.051Z,82.10
2018-03-06T00:46:11.578Z,81.82
2018-03-06T00:48:39.982Z,78.57
2018-03-06T00:51:07.598Z,81.07
2018-03-06T00:53:35.927Z,88.18
2018-03-06T00:56:04.235Z,87.82
2018-03-06T00:58:32.535Z,80.53
2018-03-06T01:01:00.163Z,104.53
2018-03-06T01:03:27.767Z,88.93
2018-03-06T01:05:56.172Z,85.22
2018-03-06T01:08:24.494Z,97.40
2018-03-06T01:10:52.899Z,87.57
2018-03-06T01:13:21.226Z,88.75
2018-03-06T01:15:48.887Z,80.10
2018-03-06T01:18:16.530Z,83.07
2018-03-06T01:20:45.077Z,83.97
2018-03-06T01:23:12.691Z,89.32
2018-03-06T01:25:40.995Z,84.22
2018-03-06T01:28:08.598Z,86.90
2018-03-06T01:30:36.192Z,93.45
2018-03-06T01:33:03.807Z,86.30
2018-03-06T01:35:31.410Z,90.38
2018-03-06T01:37:59.842Z,80.95
2018-03-06T01:40:28.239Z,94.53
2018-03-06T01:42:56.035Z,95.22
2018-03-06T01:45:24.218Z,74.45
2018-03-06T01:47:52.793Z,95.40
2018-03-06T01:50:20.402Z,88.30
2018-03-06T01:52:48.009Z,90.93
2018-03-06T01:55:16.100Z,89.37
2018-03-06T01:57:44.567Z,85.82
2018-03-06T02:00:12.923Z,81.20
2018-03-06T02:02:40.558Z,88.28
2018-03-06T02:05:08.930Z,84.60
2018-03-06T02:07:36.571Z,74.95
2018-03-06T02:10:04.174Z,91.12
2018-03-06T02:12:31.786Z,98.55
2018-03-06T02:15:00.167Z,105.68
2018-03-06T02:17:28.478Z,89.65
2018-03-06T02:19:56.079Z,93.80
2018-03-06T02:22:24.619Z,89.57
2018-03-06T02:24:52.232Z,99.85
2018-03-06T02:27:19.889Z,90.68
2018-03-06T02:29:48.334Z,99.90
2018-03-06T02:32:16.772Z,81.03
2018-03-06T02:34:45.226Z,93.32
2018-03-06T02:37:13.548Z,102.12
2018-03-06T02:39:41.200Z,91.90
2018-03-06T02:42:09.511Z,90.95
2018-03-06T02:44:37.118Z,100.45
2018-03-06T02:47:05.672Z,96.15
2018-03-06T02:49:33.326Z,99.37
2018-03-06T02:52:01.639Z,104.90
2018-03-06T02:54:29.993Z,127.12
2018-03-06T02:56:57.612Z,110.85
2018-03-06T02:59:26.158Z,109.97
2018-03-06T03:01:54.495Z,106.25
2018-03-06T03:04:22.842Z,98.00
2018-03-06T03:06:51.282Z,101.60
2018-03-06T03:09:20.966Z,88.43
2018-03-06T03:11:48.578Z,89.05
2018-03-06T03:14:16.952Z,93.70
2018-03-06T03:16:44.573Z,104.53
2018-03-06T03:19:12.175Z,95.30
2018-03-06T03:21:39.786Z,86.22
2018-03-06T03:24:07.403Z,106.40
2018-03-06T03:26:35.051Z,86.95
2018-03-06T03:29:02.658Z,108.35
2018-03-06T03:31:30.276Z,98.20
2018-03-06T03:33:57.883Z,91.45
2018-03-06T03:36:25.482Z,92.68
2018-03-06T03:38:53.104Z,104.38
2018-03-06T03:41:20.714Z,102.45
2018-03-06T03:43:48.378Z,99.37
2018-03-06T03:46:15.992Z,89.60
2018-03-06T03:48:45.431Z,96.37
2018-03-06T03:51:13.827Z,105.70
2018-03-06T03:53:41.449Z,124.18
2018-03-06T03:56:10.970Z,116.43
2018-03-06T03:58:38.583Z,103.22
2018-03-06T04:01:06.187Z,93.07
2018-03-06T04:03:33.798Z,90.18
2018-03-06T04:06:01.986Z,87.03
2018-03-06T04:08:29.591Z,111.22
2018-03-06T04:10:57.210Z,99.80
2018-03-06T04:13:24.816Z,102.80
2018-03-06T04:15:52.465Z,111.03
2018-03-06T04:18:20.086Z,107.72
2018-03-06T04:20:47.691Z,79.78
2018-03-06T04:23:15.366Z,90.43
2018-03-06T04:25:43.014Z,99.55
2018-03-06T04:28:11.652Z,121.80
2018-03-06T04:30:39.306Z,101.82
2018-03-06T04:33:06.915Z,83.05
2018-03-06T04:35:34.523Z,113.85
2018-03-06T04:38:02.143Z,108.65
2018-03-06T04:40:29.793Z,113.03
2018-03-06T04:42:57.392Z,119.47
2018-03-06T04:45:25.950Z,137.10
2018-03-06T04:47:54.379Z,97.97
2018-03-06T04:50:22.792Z,99.97
2018-03-06T04:52:51.233Z,126.82
2018-03-06T04:55:19.617Z,123.85
2018-03-06T04:57:47.659Z,119.18
2018-03-06T05:00:15.282Z,113.97
2018-03-06T05:02:42.919Z,108.95
2018-03-06T05:05:11.371Z,106.78
2018-03-06T05:07:39.731Z,121.47
2018-03-06T05:10:07.346Z,119.62
2018-03-06T05:12:35.938Z,109.68
2018-03-06T05:15:04.322Z,123.15
2018-03-06T05:17:31.943Z,109.57
2018-03-06T05:19:59.604Z,126.18
2018-03-06T05:22:27.223Z,108.10
2018-03-06T05:24:54.863Z,96.47
2018-03-06T05:27:22.490Z,110.78
2018-03-06T05:29:50.927Z,116.00
2018-03-06T05:32:18.588Z,110.97
2018-03-06T05:34:46.953Z,115.12
2018-03-06T05:37:15.456Z,124.75
2018-03-06T05:39:44.318Z,136.15
2018-03-06T05:42:12.800Z,144.75
2018-03-06T05:44:41.190Z,123.25
2018-03-06T05:47:08.875Z,127.07
2018-03-06T05:49:36.684Z,122.62
2018-03-06T05:52:04.890Z,122.85
2018-03-06T05:54:32.618Z,109.40
2018-03-06T05:57:00.981Z,113.28
2018-03-06T05:59:28.664Z,116.60
2018-03-06T06:01:56.312Z,114.93
2018-03-06T06:04:24.057Z,122.18
2018-03-06T06:06:52.582Z,113.97
2018-03-06T06:09:21.115Z,118.22
2018-03-06T06:11:48.776Z,117.95
2018-03-06T06:14:16.475Z,104.47
2018-03-06T06:16:44.179Z,118.80
2018-03-06T06:19:11.799Z,122.62
2018-03-06T06:21:40.353Z,102.65
2018-03-06T06:24:08.751Z,109.35
2018-03-06T06:26:36.380Z,120.35
2018-03-06T06:29:03.974Z,128.50
2018-03-06T06:31:32.513Z,119.10
2018-03-06T06:34:00.103Z,107.00
2018-03-06T06:36:27.733Z,127.55
2018-03-06T06:38:55.332Z,125.72
2018-03-06T06:41:23.136Z,117.93
2018-03-06T06:43:50.728Z,122.72
2018-03-06T06:46:18.320Z,116.70
2018-03-06T06:48:45.943Z,122.85
2018-03-06T06:51:13.536Z,119.75
2018-03-06T06:53:41.130Z,130.52
2018-03-06T06:56:08.714Z,130.12
2018-03-06T06:58:37.298Z,117.47
2018-03-06T07:01:04.887Z,113.80
2018-03-06T07:03:32.471Z,122.10
2018-03-06T07:06:00.094Z,112.35
2018-03-06T07:08:27.719Z,123.30
2018-03-06T07:10:55.317Z,132.87
2018-03-06T07:13:22.921Z,118.93
2018-03-06T07:15:50.505Z,114.97
2018-03-06T07:18:18.134Z,142.10
2018-03-06T07:20:45.728Z,110.00
2018-03-06T07:23:13.350Z,102.68
2018-03-06T07:25:40.947Z,100.03
2018-03-06T07:28:08.571Z,113.47
2018-03-06T07:30:36.154Z,114.80
2018-03-06T07:33:03.748Z,105.82
2018-03-06T07:35:31.362Z,105.28
2018-03-06T07:37:58.949Z,111.07
2018-03-06T07:40:27.339Z,108.12
2018-03-06T07:42:55.710Z,121.22
2018-03-06T07:45:23.341Z,114.78
2018-03-06T07:47:50.959Z,109.85
2018-03-06T07:50:18.542Z,91.78
2018-03-06T07:52:46.135Z,111.22
2018-03-06T07:55:13.760Z,108.95
2018-03-06T07:57:41.342Z,97.40
2018-03-06T08:00:08.979Z,126.28
2018-03-06T08:02:36.559Z,108.47
2018-03-06T08:05:04.165Z,101.20
2018-03-06T08:07:31.759Z,112.00
2018-03-06T08:09:59.358Z,124.87
2018-03-06T08:12:26.944Z,104.57
2018-03-06T08:14:55.499Z,111.20
2018-03-06T08:17:23.890Z,91.10
2018-03-06T08:19:52.427Z,113.68
2018-03-06T08:22:20.806Z,107.12
2018-03-06T08:24:48.422Z,101.53
2018-03-06T08:27:16.011Z,103.95
2018-03-06T08:29:44.340Z,101.68
2018-03-06T08:32:12.844Z,88.93
2018-03-06T08:34:40.433Z,102.22
2018-03-06T08:37:08.959Z,115.68
2018-03-06T08:39:37.331Z,108.15
2018-03-06T08:42:04.927Z,90.28
2018-03-06T08:44:33.370Z,103.57
2018-03-06T08:47:00.952Z,92.87
2018-03-06T08:49:28.571Z,97.87
2018-03-06T08:51:56.155Z,109.37
2018-03-06T08:54:23.742Z,104.00
2018-03-06T08:56:51.354Z,95.20
2018-03-06T08:59:18.932Z,91.17
2018-03-06T09:01:46.518Z,105.67
2018-03-06T09:04:14.098Z,96.07
2018-03-06T09:06:41.710Z,93.73
2018-03-06T09:09:09.285Z,99.93
2018-03-06T09:11:36.907Z,103.35
2018-03-06T09:14:04.494Z,87.23
2018-03-06T09:16:32.079Z,96.30
2018-03-06T09:19:00.443Z,102.77
2018-03-06T09:21:28.026Z,103.87
2018-03-06T09:23:55.607Z,98.90
2018-03-06T09:26:23.196Z,102.23
2018-03-06T09:28:50.783Z,102.70
2018-03-06T09:31:18.367Z,114.37
2018-03-06T09:33:45.943Z,88.10
2018-03-06T09:36:13.523Z,94.40
2018-03-06T09:38:41.098Z,81.10
2018-03-06T09:41:08.674Z,96.07
2018-03-06T09:43:36.247Z,84.10
2018-03-06T09:46:03.831Z,94.87
2018-03-06T09:48:31.406Z,84.73
2018-03-06T09:50:59.894Z,83.43
2018-03-06T09:53:27.466Z,85.30
2018-03-06T09:55:55.051Z,86.77
2018-03-06T09:58:22.631Z,81.77
2018-03-06T10:00:50.210Z,85.13
2018-03-06T10:03:17.820Z,79.87
2018-03-06T10:05:45.394Z,78.87
2018-03-06T10:08:13.760Z,88.83
2018-03-06T10:10:41.342Z,92.47
2018-03-06T10:13:08.918Z,84.40
2018-03-06T10:15:36.498Z,84.60
2018-03-06T10:18:04.078Z,84.33
2018-03-06T10:20:31.698Z,88.53
2018-03-06T10:22:59.287Z,83.13
2018-03-06T10:25:26.862Z,90.93
2018-03-06T10:27:54.463Z,88.17
2018-03-06T10:30:22.043Z,84.97
2018-03-06T10:32:49.632Z,85.23
2018-03-06T10:35:17.228Z,81.80
2018-03-06T10:37:44.828Z,93.10
2018-03-06T10:40:12.404Z,88.73
2018-03-06T10:42:39.988Z,86.20
2018-03-06T10:45:07.560Z,94.03
2018-03-06T10:47:35.142Z,90.13
2018-03-06T10:50:02.723Z,78.83
2018-03-06T10:52:30.307Z,101.00
2018-03-06T10:54:57.892Z,96.90
2018-03-06T10:57:25.463Z,90.40
2018-03-06T10:59:53.041Z,78.83
2018-03-06T11:02:20.618Z,83.17
2018-03-06T11:04:48.194Z,98.07
2018-03-06T11:07:15.778Z,86.73
2018-03-06T11:09:43.362Z,77.00
2018-03-06T11:12:10.943Z,91.77
2018-03-06T11:14:38.553Z,83.93
2018-03-06T11:17:06.148Z,96.13
2018-03-06T11:19:33.731Z,80.70
2018-03-06T11:22:01.311Z,81.23
2018-03-06T11:24:28.923Z,89.93
2018-03-06T11:26:56.499Z,96.53
2018-03-06T11:29:24.106Z,94.47
2018-03-06T11:31:51.688Z,87.33
2018-03-06T11:34:19.307Z,97.30
2018-03-06T11:36:46.887Z,87.23
2018-03-06T11:39:14.475Z,88.37
2018-03-06T11:41:42.055Z,79.63
2018-03-06T11:44:09.640Z,89.50
2018-03-06T11:46:37.224Z,88.23
2018-03-06T11:49:04.811Z,95.37
2018-03-06T11:51:32.390Z,98.10
2018-03-06T11:53:59.972Z,85.40
2018-03-06T11:56:27.560Z,93.10
2018-03-06T11:58:55.191Z,96.27
2018-03-06T12:01:22.807Z,86.93
2018-03-06T12:03:50.383Z,103.47
2018-03-06T12:06:17.962Z,87.60
2018-03-06T12:08:45.543Z,88.57
2018-03-06T12:11:13.122Z,96.63
2018-03-06T12:13:40.722Z,92.33
2018-03-06T12:16:08.304Z,91.27
2018-03-06T12:18:35.924Z,86.43
2018-03-06T12:21:03.492Z,87.03
2018-03-06T12:23:31.076Z,101.47
2018-03-06T12:25:58.651Z,95.57
2018-03-06T12:28:26.227Z,89.17
2018-03-06T12:30:53.805Z,102.20
2018-03-06T12:33:21.390Z,96.57
2018-03-06T12:35:48.974Z,95.43
2018-03-06T12:38:17.463Z,91.03
2018-03-06T12:40:45.040Z,80.80
2018-03-06T12:43:12.615Z,81.83
2018-03-06T12:45:40.202Z,94.60
2018-03-06T12:48:07.788Z,94.73
2018-03-06T12:50:35.372Z,102.97
2018-03-06T12:53:03.735Z,107.17
2018-03-06T12:55:31.324Z,108.13
2018-03-06T12:57:58.898Z,93.77
2018-03-06T13:00:26.478Z,111.43
2018-03-06T13:02:54.058Z,126.53
2018-03-06T13:05:21.637Z,97.63
2018-03-06T13:07:49.218Z,114.73
2018-03-06T13:10:16.799Z,107.90
2018-03-06T13:12:44.414Z,101.27
2018-03-06T13:15:12.769Z,116.17
2018-03-06T13:17:40.348Z,120.27
2018-03-06T13:20:07.930Z,120.17
2018-03-06T13:22:35.547Z,131.80
2018-03-06T13:25:03.139Z,135.37
2018-03-06T13:27:30.718Z,123.47
2018-03-06T13:29:58.309Z,136.97
2018-03-06T13:32:25.894Z,130.87
2018-03-06T13:34:53.483Z,136.23
2018-03-06T13:37:21.108Z,125.00
2018-03-06T13:39:48.709Z,124.87
2018-03-06T13:42:16.307Z,136.03
2018-03-06T13:44:44.779Z,138.03
2018-03-06T13:47:12.359Z,132.27
2018-03-06T13:49:39.949Z,137.47
2018-03-06T13:52:07.535Z,138.37
2018-03-06T13:54:35.149Z,130.67
2018-03-06T13:57:02.734Z,140.57
2018-03-06T13:59:30.469Z,139.83
2018-03-06T14:01:58.054Z,137.53
2018-03-06T14:04:25.643Z,147.60
2018-03-06T14:06:53.220Z,143.30
2018-03-06T14:09:20.799Z,127.13
2018-03-06T14:11:48.385Z,133.17
2018-03-06T14:14:15.959Z,145.43
2018-03-06T14:16:43.539Z,143.97
2018-03-06T14:19:11.124Z,165.17
2018-03-06T14:21:38.715Z,143.73
2018-03-06T14:24:06.298Z,140.53
2018-03-06T14:26:33.886Z,141.80
2018-03-06T14:29:01.467Z,134.87
2018-03-06T14:31:29.087Z,134.87
2018-03-06T14:33:56.666Z,123.13
2018-03-06T14:36:24.252Z,130.07
2018-03-06T14:38:51.831Z,140.83
2018-03-06T14:41:19.452Z,131.60
2018-03-06T14:43:47.046Z,145.97
2018-03-06T14:46:14.623Z,150.10
2018-03-06T14:48:42.210Z,129.10
2018-03-06T14:51:09.815Z,135.77
2018-03-06T14:53:38.195Z,119.83
2018-03-06T14:56:05.774Z,129.90
2018-03-06T14:58:33.380Z,137.57
2018-03-06T15:01:01.756Z,144.73
2018-03-06T15:03:29.338Z,128.43
2018-03-06T15:05:56.923Z,150.87
2018-03-06T15:08:24.511Z,147.30
2018-03-06T15:10:52.095Z,160.73
2018-03-06T15:13:19.692Z,162.50
2018-03-06T15:15:47.275Z,154.40
2018-03-06T15:18:14.850Z,173.73
2018-03-06T15:20:42.427Z,165.73
2018-03-06T15:23:10.012Z,167.40
2018-03-06T15:25:37.595Z,156.80
2018-03-06T15:28:05.892Z,168.20
2018-03-06T15:30:33.487Z,180.10
2018-03-06T15:33:02.031Z,170.33
2018-03-06T15:35:30.343Z,160.53
2018-03-06T15:37:57.919Z,190.10
2018-03-06T15:40:25.535Z,177.80
2018-03-06T15:42:53.126Z,188.10
2018-03-06T15:45:20.710Z,211.63
2018-03-06T15:47:48.294Z,176.80
2018-03-06T15:50:16.906Z,189.20
2018-03-06T15:52:44.527Z,197.40
2018-03-06T15:55:12.112Z,192.10
2018-03-06T15:57:39.695Z,181.43
2018-03-06T16:00:08.195Z,203.37
2018-03-06T16:02:35.908Z,191.17
2018-03-06T16:05:04.199Z,206.97
2018-03-06T16:07:31.779Z,185.70
2018-03-06T16:09:59.410Z,212.63
2018-03-06T16:12:27.004Z,198.18
2018-03-06T16:14:54.587Z,228.63
2018-03-06T16:17:22.171Z,191.83
2018-03-06T16:19:52.007Z,213.23
2018-03-06T16:22:22.492Z,208.77
2018-03-06T16:24:52.993Z,229.53
2018-03-06T16:27:23.523Z,217.83
2018-03-06T16:29:52.161Z,235.27
2018-03-06T16:32:19.815Z,211.20
2018-03-06T16:34:47.418Z,222.67
2018-03-06T16:37:15.003Z,218.63
2018-03-06T16:39:43.512Z,241.23
2018-03-06T16:42:11.912Z,232.77
2018-03-06T16:44:40.510Z,224.90
2018-03-06T16:47:08.135Z,230.00
2018-03-06T16:49:35.717Z,213.13
2018-03-06T16:52:03.303Z,196.60
2018-03-06T16:54:30.916Z,206.60
2018-03-06T16:56:58.554Z,214.40
2018-03-06T16:59:26.235Z,208.47
2018-03-06T17:01:53.967Z,213.97
2018-03-06T17:04:21.566Z,218.87
2018-03-06T17:06:49.179Z,202.60
2018-03-06T17:09:16.765Z,217.87
2018-03-06T17:11:44.447Z,195.77
2018-03-06T17:14:12.026Z,204.43
2018-03-06T17:16:39.608Z,195.03
2018-03-06T17:19:07.195Z,210.27
2018-03-06T17:21:34.779Z,211.27
2018-03-06T17:24:02.376Z,186.62
2018-03-06T17:26:29.961Z,197.27
2018-03-06T17:28:57.558Z,209.90
2018-03-06T17:31:25.955Z,196.90
2018-03-06T17:33:54.453Z,195.17
2018-03-06T17:36:23.109Z,204.47
2018-03-06T17:38:50.708Z,209.77
2018-03-06T17:41:19.298Z,186.07
2018-03-06T17:43:46.968Z,206.60
2018-03-06T17:46:14.556Z,190.97
2018-03-06T17:48:42.439Z,188.77
2018-03-06T17:51:10.089Z,183.97
2018-03-06T17:53:38.271Z,194.30
2018-03-06T17:56:05.850Z,181.63
2018-03-06T17:58:33.435Z,175.53
2018-03-06T18:01:01.278Z,184.65
2018-03-06T18:03:29.790Z,189.05
2018-03-06T18:05:57.494Z,163.97
2018-03-06T18:08:25.163Z,177.80
2018-03-06T18:10:52.755Z,177.60
2018-03-06T18:13:20.390Z,185.75
2018-03-06T18:15:48.035Z,181.07
2018-03-06T18:18:19.409Z,164.50
2018-03-06T18:20:47.170Z,172.87
2018-03-06T18:23:14.760Z,178.63
2018-03-06T18:25:42.911Z,160.83
2018-03-06T18:28:10.640Z,178.17
2018-03-06T18:30:38.230Z,160.73
2018-03-06T18:33:05.819Z,165.60
2018-03-06T18:35:34.104Z,156.70
2018-03-06T18:38:03.634Z,171.03
2018-03-06T18:40:31.300Z,172.10
2018-03-06T18:42:58.947Z,178.97
2018-03-06T18:45:27.468Z,144.43
2018-03-06T18:47:55.080Z,176.80
2018-03-06T18:50:34.910Z,155.67
2018-03-06T18:53:02.507Z,141.17
2018-03-06T18:55:30.998Z,162.32
2018-03-06T18:57:58.591Z,149.15
2018-03-06T19:03:46.007Z,147.33
2018-03-06T19:06:22.387Z,136.98
2018-03-06T19:08:49.975Z,132.75
2018-03-06T19:11:17.578Z,152.30
2018-03-06T19:13:45.176Z,131.30
2018-03-06T19:16:13.562Z,134.82
2018-03-06T19:18:41.136Z,136.17
2018-03-06T19:21:08.725Z,128.68
2018-03-06T19:23:36.399Z,125.77
2018-03-06T19:26:03.984Z,127.65
2018-03-06T19:28:31.613Z,127.97
2018-03-06T19:30:59.210Z,127.50
2018-03-06T19:33:26.855Z,131.35
2018-03-06T19:35:55.207Z,138.97
2018-03-06T19:38:23.758Z,124.20
2018-03-06T19:40:51.347Z,132.23
2018-03-06T19:43:18.925Z,134.07
2018-03-06T19:45:47.300Z,140.53
2018-03-06T19:48:14.891Z,119.45
2018-03-06T19:50:43.207Z,126.28
2018-03-06T19:53:11.609Z,140.30
2018-03-06T19:55:40.199Z,129.43
2018-03-06T19:58:07.883Z,136.63
2018-03-06T20:00:35.453Z,129.73
2018-03-06T20:03:03.051Z,129.93
2018-03-06T20:05:30.674Z,132.83
2018-03-06T20:07:58.287Z,125.97
2018-03-06T20:10:25.870Z,142.63
2018-03-06T20:12:53.502Z,126.00
2018-03-06T20:15:21.987Z,114.73
2018-03-06T20:17:49.602Z,121.20
2018-03-06T20:20:17.183Z,125.53
2018-03-06T20:22:45.672Z,109.00
2018-03-06T20:25:19.132Z,132.50
2018-03-06T20:27:46.711Z,128.87
2018-03-06T20:30:19.999Z,118.80
2018-03-06T20:32:53.385Z,115.97
2018-03-06T20:35:21.051Z,114.33
2018-03-06T20:37:49.585Z,103.30
2018-03-06T20:40:22.690Z,105.60
2018-03-06T20:42:51.132Z,101.07
2018-03-06T20:45:18.900Z,97.53
2018-03-06T20:47:46.539Z,92.60
2018-03-06T20:50:14.247Z,110.40
2018-03-06T20:52:47.618Z,121.80
2018-03-06T20:55:15.262Z,107.10
2018-03-06T20:57:42.876Z,109.07
2018-03-06T21:00:10.486Z,108.53
2018-03-06T21:02:38.103Z,102.40
2018-03-06T21:05:05.711Z,103.20
2018-03-06T21:07:33.375Z,109.60
2018-03-06T21:10:00.953Z,127.40
2018-03-06T21:12:28.539Z,110.70
2018-03-06T21:14:56.138Z,123.05
2018-03-06T21:17:23.719Z,123.23
2018-03-06T21:19:51.303Z,125.07
2018-03-06T21:22:18.889Z,107.63
2018-03-06T21:24:46.482Z,111.30
2018-03-06T21:27:14.071Z,112.95
2018-03-06T21:29:41.667Z,115.82
2018-03-06T21:32:09.282Z,108.37
2018-03-06T21:34:36.902Z,100.37
2018-03-06T21:37:04.518Z,109.67
2018-03-06T21:39:32.131Z,111.60
2018-03-06T21:41:59.754Z,112.27
2018-03-06T21:44:27.353Z,110.03
2018-03-06T21:46:54.975Z,108.10
2018-03-06T21:49:23.299Z,108.72
2018-03-06T21:51:51.961Z,105.97
2018-03-06T21:54:20.567Z,100.97
2018-03-06T21:56:48.987Z,107.20
2018-03-06T21:59:16.577Z,96.87
2018-03-06T22:01:44.166Z,115.07
2018-03-06T22:04:11.747Z,107.60
2018-03-06T22:06:39.327Z,106.03
2018-03-06T22:09:06.908Z,107.70
2018-03-06T22:11:34.550Z,103.90
2018-03-06T22:14:02.249Z,121.33
2018-03-06T22:16:30.604Z,109.37
2018-03-06T22:18:58.186Z,109.07
2018-03-06T22:21:25.827Z,109.82
2018-03-06T22:23:53.420Z,95.85
2018-03-06T22:26:21.042Z,106.30
2018-03-06T22:28:48.619Z,97.07
2018-03-06T22:31:16.243Z,90.53
2018-03-06T22:33:43.879Z,94.72
2018-03-06T22:36:11.471Z,99.57
2018-03-06T22:38:39.057Z,107.97
2018-03-06T22:41:06.648Z,106.70
2018-03-06T22:43:34.230Z,113.30
2018-03-06T22:46:02.636Z,101.90
2018-03-06T22:48:30.216Z,99.90
2018-03-06T22:50:57.842Z,94.25
2018-03-06T22:53:25.428Z,99.43
2018-03-06T22:55:53.196Z,112.25
2018-03-06T22:58:20.780Z,107.17
2018-03-06T23:00:49.211Z,104.40
2018-03-06T23:03:17.651Z,112.47
2018-03-06T23:05:46.070Z,106.13
2018-03-06T23:08:14.366Z,101.25
2018-03-06T23:10:42.795Z,101.15
2018-03-06T23:13:10.435Z,100.32
2018-03-06T23:15:38.023Z,116.22
2018-03-06T23:18:05.615Z,104.53
2018-03-06T23:20:34.128Z,95.97
2018-03-06T23:23:02.499Z,80.90
2018-03-06T23:25:30.082Z,89.65
2018-03-06T23:27:58.587Z,105.60
2018-03-06T23:30:26.943Z,89.73
2018-03-06T23:32:54.567Z,97.50
2018-03-06T23:35:23.078Z,89.87
2018-03-06T23:37:51.347Z,95.07
2018-03-06T23:46:00.146Z,97.65
2018-03-06T23:48:27.691Z,93.67
2018-03-06T23:50:55.286Z,88.68
2018-03-06T23:53:22.834Z,91.10
2018-03-06T23:55:51.186Z,88.53
2018-03-06T23:58:19.582Z,92.72
